createdAt,value
2023-04-12T00:02:27.915Z,9.30
2023-04-12T00:04:58.603Z,9.10
2023-04-12T00:07:27.231Z,7.90
2023-04-12T00:09:54.836Z,8.80
2023-04-12T00:12:22.486Z,9.90
2023-04-12T00:14:50.134Z,8.20
2023-04-12T00:17:19.102Z,8.50
2023-04-12T00:19:50.022Z,7.70
2023-04-12T00:22:17.608Z,8.30
2023-04-12T00:24:45.243Z,6.80
2023-04-12T00:27:13.040Z,7.40
2023-04-12T00:29:40.907Z,7.90
2023-04-12T00:32:08.503Z,8.40
2023-04-12T00:34:36.015Z,8.10
2023-04-12T00:37:04.043Z,8.10
2023-04-12T00:39:31.530Z,7.60
2023-04-12T00:42:03.909Z,6.80
2023-04-12T00:44:33.637Z,7.30
2023-04-12T00:47:03.682Z,6.30
2023-04-12T00:49:31.760Z,6.00
2023-04-12T00:52:10.057Z,5.80
2023-04-12T00:54:37.959Z,5.70
2023-04-12T00:57:05.716Z,6.70
2023-04-12T00:59:33.413Z,6.40
2023-04-12T01:02:01.449Z,6.10
2023-04-12T01:04:29.453Z,5.80
2023-04-12T01:07:28.835Z,6.40
2023-04-12T01:10:00.660Z,6.30
2023-04-12T01:12:51.408Z,6.30
2023-04-12T01:15:19.173Z,6.90
2023-04-12T01:17:58.356Z,8.50
2023-04-12T01:20:36.174Z,10.70
2023-04-12T01:23:28.467Z,9.70
2023-04-12T01:26:02.623Z,9.10
2023-04-12T01:28:36.129Z,8.20
2023-04-12T01:31:05.982Z,8.60
2023-04-12T01:33:35.231Z,6.90
2023-04-12T01:36:16.994Z,7.10
2023-04-12T01:38:45.649Z,7.20
2023-04-12T01:41:14.634Z,9.00
2023-04-12T01:43:43.797Z,9.10
2023-04-12T01:46:13.805Z,7.90
2023-04-12T01:48:45.971Z,6.90
2023-04-12T01:51:40.509Z,7.60
2023-04-12T01:54:13.705Z,7.70
2023-04-12T01:56:45.005Z,7.50
2023-04-12T01:59:15.956Z,8.00
2023-04-12T02:01:48.039Z,9.20
2023-04-12T02:04:17.299Z,9.40
2023-04-12T02:06:46.544Z,9.00
2023-04-12T02:09:14.019Z,9.50
2023-04-12T02:11:46.390Z,10.80
2023-04-12T02:14:13.956Z,10.70
2023-04-12T02:16:46.016Z,12.50
2023-04-12T02:19:14.005Z,13.10
2023-04-12T02:21:45.385Z,10.00
2023-04-12T02:24:13.085Z,8.50
2023-04-12T02:26:40.545Z,9.80
2023-04-12T02:29:10.356Z,9.50
2023-04-12T02:31:39.204Z,7.90
2023-04-12T02:34:07.678Z,8.10
2023-04-12T02:36:37.517Z,7.70
2023-04-12T02:39:05.741Z,7.60
2023-04-12T02:41:33.275Z,9.10
2023-04-12T02:44:01.195Z,7.10
2023-04-12T02:46:28.965Z,10.50
2023-04-12T02:48:56.645Z,7.40
2023-04-12T02:51:24.126Z,7.60
2023-04-12T02:53:51.718Z,7.80
2023-04-12T02:56:19.552Z,7.30
2023-04-12T02:58:48.770Z,8.30
2023-04-12T03:01:16.907Z,8.20
2023-04-12T03:03:44.496Z,8.50
2023-04-12T03:06:12.108Z,8.50
2023-04-12T03:08:39.816Z,8.00
2023-04-12T03:11:07.529Z,8.10
2023-04-12T03:13:34.953Z,7.50
2023-04-12T03:16:21.477Z,7.70
2023-04-12T03:18:51.671Z,6.70
2023-04-12T03:21:19.167Z,6.90
2023-04-12T03:23:46.795Z,7.80
2023-04-12T03:26:14.328Z,7.60
2023-04-12T03:28:43.261Z,15.10
2023-04-12T03:31:10.907Z,18.80
2023-04-12T03:33:39.014Z,9.80
2023-04-12T03:36:07.262Z,8.00
2023-04-12T03:38:34.848Z,9.30
2023-04-12T03:41:02.364Z,26.40
2023-04-12T03:43:35.874Z,19.60
2023-04-12T03:46:04.585Z,12.30
2023-04-12T03:48:32.651Z,27.40
2023-04-12T03:51:00.698Z,21.80
2023-04-12T03:53:28.254Z,31.20
2023-04-12T03:55:56.441Z,10.20
2023-04-12T03:58:23.957Z,9.40
2023-04-12T04:00:52.302Z,8.80
2023-04-12T04:03:20.125Z,10.80
2023-04-12T04:05:48.318Z,9.40
2023-04-12T04:08:15.957Z,8.90
2023-04-12T04:10:43.534Z,7.50
2023-04-12T04:13:11.093Z,9.00
2023-04-12T04:15:39.912Z,10.10
2023-04-12T04:18:08.697Z,8.70
2023-04-12T04:20:36.311Z,10.30
2023-04-12T04:23:03.799Z,26.00
2023-04-12T04:25:31.352Z,11.40
2023-04-12T04:27:59.759Z,8.90
2023-04-12T04:30:27.288Z,7.80
2023-04-12T04:32:54.886Z,8.30
2023-04-12T04:35:24.224Z,8.20
2023-04-12T04:37:52.819Z,53.20
2023-04-12T04:40:21.805Z,33.60
2023-04-12T04:42:54.668Z,11.80
2023-04-12T04:45:27.627Z,10.30
2023-04-12T04:47:56.373Z,8.90
2023-04-12T04:50:26.483Z,8.20
2023-04-12T04:52:53.993Z,8.10
2023-04-12T04:55:21.806Z,10.10
2023-04-12T04:57:49.306Z,10.40
2023-04-12T05:00:18.350Z,10.90
2023-04-12T05:02:46.476Z,10.40
2023-04-12T05:05:15.824Z,9.40
2023-04-12T05:07:43.838Z,9.00
2023-04-12T05:10:11.757Z,44.30
2023-04-12T05:12:39.263Z,51.90
2023-04-12T05:15:11.748Z,13.90
2023-04-12T05:17:41.163Z,13.50
2023-04-12T05:20:11.117Z,16.20
2023-04-12T05:22:38.851Z,14.30
2023-04-12T05:25:06.943Z,15.30
2023-04-12T05:27:34.564Z,18.10
2023-04-12T05:30:02.725Z,14.80
2023-04-12T05:32:31.832Z,15.00
2023-04-12T05:34:59.400Z,15.80
2023-04-12T05:37:30.156Z,16.00
2023-04-12T05:39:57.772Z,14.30
2023-04-12T05:42:27.056Z,12.30
2023-04-12T05:44:56.062Z,15.40
2023-04-12T05:47:26.827Z,13.50
2023-04-12T05:49:55.852Z,10.90
2023-04-12T05:52:23.749Z,12.00
2023-04-12T05:54:56.726Z,11.30
2023-04-12T05:57:27.863Z,11.40
2023-04-12T05:59:57.894Z,11.20
2023-04-12T06:02:26.325Z,9.70
2023-04-12T06:04:56.046Z,9.90
2023-04-12T06:07:25.384Z,9.20
2023-04-12T06:09:57.648Z,10.30
2023-04-12T06:12:28.489Z,9.40
2023-04-12T06:14:57.707Z,11.00
2023-04-12T06:17:28.142Z,13.60
2023-04-12T06:19:58.042Z,7.70
2023-04-12T06:22:30.285Z,8.30
2023-04-12T06:25:02.633Z,8.80
2023-04-12T06:27:33.277Z,8.00
2023-04-12T06:30:06.069Z,17.50
2023-04-12T06:32:39.164Z,11.20
2023-04-12T06:35:09.429Z,8.90
2023-04-12T06:37:38.543Z,8.50
2023-04-12T06:40:10.380Z,11.90
2023-04-12T06:42:42.649Z,8.30
2023-04-12T06:45:12.310Z,15.30
2023-04-12T06:47:57.484Z,13.60
2023-04-12T06:50:30.215Z,10.40
2023-04-12T06:52:59.720Z,8.80
2023-04-12T06:55:29.394Z,11.00
2023-04-12T06:57:57.712Z,14.40
2023-04-12T07:00:26.530Z,13.30
2023-04-12T07:02:55.460Z,10.90
2023-04-12T07:05:23.984Z,10.00
2023-04-12T07:07:51.586Z,8.70
2023-04-12T07:10:20.342Z,8.50
2023-04-12T07:12:48.034Z,8.90
2023-04-12T07:15:15.985Z,11.20
2023-04-12T07:17:43.681Z,10.80
2023-04-12T07:20:11.736Z,9.70
2023-04-12T07:22:39.560Z,16.30
2023-04-12T07:25:10.359Z,13.60
2023-04-12T07:27:38.467Z,13.90
2023-04-12T07:30:08.066Z,9.50
2023-04-12T07:32:35.695Z,18.80
2023-04-12T07:35:03.450Z,8.90
2023-04-12T07:37:31.047Z,16.30
2023-04-12T07:39:59.155Z,15.60
2023-04-12T07:42:28.295Z,26.50
2023-04-12T07:44:56.306Z,14.90
2023-04-12T07:47:24.005Z,15.60
2023-04-12T07:49:55.590Z,12.50
2023-04-12T07:52:23.251Z,15.00
2023-04-12T07:54:53.240Z,10.90
2023-04-12T07:57:25.974Z,14.00
2023-04-12T07:59:54.432Z,13.20
2023-04-12T08:02:25.806Z,31.40
2023-04-12T08:04:56.450Z,38.70
2023-04-12T08:07:24.125Z,31.70
2023-04-12T08:09:56.883Z,24.10
2023-04-12T08:12:26.174Z,22.10
2023-04-12T08:14:53.831Z,13.40
2023-04-12T08:17:21.640Z,13.10
2023-04-12T08:19:49.360Z,15.20
2023-04-12T08:22:16.973Z,11.90
2023-04-12T08:24:44.711Z,8.70
2023-04-12T08:27:13.870Z,9.90
2023-04-12T08:29:41.476Z,10.60
2023-04-12T08:32:10.170Z,13.80
2023-04-12T08:34:37.658Z,9.40
2023-04-12T08:37:05.775Z,9.10
2023-04-12T08:39:33.323Z,11.50
2023-04-12T08:42:02.936Z,14.40
2023-04-12T08:44:39.111Z,11.30
2023-04-12T08:47:15.393Z,11.90
2023-04-12T08:49:55.591Z,12.60
2023-04-12T08:52:29.439Z,10.80
2023-04-12T08:55:03.004Z,10.20
2023-04-12T08:57:37.520Z,9.80
2023-04-12T09:00:10.303Z,9.40
2023-04-12T09:02:39.752Z,18.60
2023-04-12T09:05:11.091Z,10.70
2023-04-12T09:07:38.565Z,13.00
2023-04-12T09:10:10.342Z,13.50
2023-04-12T09:12:54.195Z,7.80
2023-04-12T09:15:22.755Z,7.50
2023-04-12T09:18:04.246Z,18.20
2023-04-12T09:20:34.457Z,11.10
2023-04-12T09:23:22.217Z,7.30
2023-04-12T09:25:52.732Z,14.50
2023-04-12T09:28:31.087Z,8.80
2023-04-12T09:31:00.824Z,7.60
2023-04-12T09:33:39.901Z,13.20
2023-04-12T09:36:15.446Z,12.90
2023-04-12T09:39:10.785Z,8.30
2023-04-12T09:41:43.803Z,14.50
2023-04-12T09:44:31.504Z,16.60
2023-04-12T09:47:02.138Z,8.70
2023-04-12T09:49:43.750Z,10.20
2023-04-12T09:52:14.920Z,11.90
2023-04-12T09:54:45.870Z,9.20
2023-04-12T09:57:23.584Z,8.90
2023-04-12T09:59:53.520Z,13.40
2023-04-12T10:02:28.627Z,17.20
2023-04-12T10:04:57.152Z,9.70
2023-04-12T10:07:25.599Z,12.40
2023-04-12T10:09:54.691Z,8.40
2023-04-12T10:12:22.516Z,11.50
2023-04-12T10:14:51.757Z,9.50
2023-04-12T10:17:22.624Z,7.90
2023-04-12T10:19:57.802Z,8.30
2023-04-12T10:22:25.568Z,9.70
2023-04-12T10:24:53.195Z,8.40
2023-04-12T10:27:27.517Z,7.70
2023-04-12T10:30:31.010Z,7.20
2023-04-12T10:33:05.502Z,9.30
2023-04-12T10:36:03.469Z,10.40
2023-04-12T10:39:09.536Z,7.80
2023-04-12T10:41:37.565Z,11.00
2023-04-12T10:44:25.977Z,9.30
2023-04-12T10:46:59.829Z,7.40
2023-04-12T10:49:28.103Z,8.70
2023-04-12T10:52:02.852Z,9.90
2023-04-12T10:54:35.661Z,8.60
2023-04-12T10:57:04.880Z,8.90
2023-04-12T10:59:51.846Z,8.40
2023-04-12T11:02:19.867Z,8.40
2023-04-12T11:05:08.983Z,9.30
2023-04-12T11:07:42.532Z,7.40
2023-04-12T11:10:16.521Z,8.10
2023-04-12T11:12:54.895Z,8.00
2023-04-12T11:15:27.146Z,10.70
2023-04-12T11:17:57.289Z,8.90
2023-04-12T11:20:30.974Z,7.50
2023-04-12T11:23:00.957Z,7.00
2023-04-12T11:25:29.075Z,8.20
2023-04-12T11:27:56.819Z,7.20
2023-04-12T11:30:25.956Z,7.20
2023-04-12T11:32:53.876Z,10.50
2023-04-12T11:35:27.472Z,19.70
2023-04-12T11:37:57.613Z,13.60
2023-04-12T11:40:26.427Z,9.80
2023-04-12T11:42:54.342Z,9.10
2023-04-12T11:45:22.015Z,8.90
2023-04-12T11:47:52.115Z,8.10
2023-04-12T11:50:37.491Z,13.10
2023-04-12T11:53:17.916Z,11.00
2023-04-12T11:55:49.957Z,11.20
2023-04-12T11:58:22.794Z,10.00
2023-04-12T12:00:51.252Z,8.40
2023-04-12T12:03:19.814Z,8.30
2023-04-12T12:05:49.998Z,10.40
2023-04-12T12:08:19.033Z,7.00
2023-04-12T12:11:04.571Z,13.60
2023-04-12T12:13:49.167Z,7.60
2023-04-12T12:16:19.820Z,7.00
2023-04-12T12:19:14.541Z,13.20
2023-04-12T12:21:49.741Z,7.30
2023-04-12T12:24:17.860Z,8.10
2023-04-12T12:26:45.403Z,10.90
2023-04-12T12:29:18.458Z,9.10
2023-04-12T12:31:49.344Z,8.50
2023-04-12T12:34:19.582Z,7.00
2023-04-12T12:36:57.872Z,6.60
2023-04-12T12:39:26.256Z,9.40
2023-04-12T12:41:56.632Z,9.30
2023-04-12T12:44:25.221Z,8.00
2023-04-12T12:47:00.595Z,7.20
2023-04-12T12:49:41.154Z,5.90
2023-04-12T12:52:17.199Z,6.10
2023-04-12T12:54:55.170Z,6.20
2023-04-12T12:57:26.620Z,6.90
2023-04-12T12:59:55.723Z,7.00
2023-04-12T13:02:24.090Z,5.20
2023-04-12T13:04:52.801Z,5.60
2023-04-12T13:07:21.043Z,6.90
2023-04-12T13:09:49.697Z,7.60
2023-04-12T13:12:22.000Z,5.80
2023-04-12T13:14:49.857Z,6.00
2023-04-12T13:17:17.503Z,5.10
2023-04-12T13:19:48.644Z,5.70
2023-04-12T13:22:19.327Z,5.00
2023-04-12T13:24:46.967Z,5.70
2023-04-12T13:27:16.433Z,6.00
2023-04-12T13:29:44.148Z,5.80
2023-04-12T13:32:13.321Z,5.60
2023-04-12T13:34:41.300Z,7.80
2023-04-12T13:37:08.921Z,6.90
2023-04-12T13:39:36.948Z,6.50
2023-04-12T13:42:04.634Z,6.40
2023-04-12T13:44:32.237Z,5.90
2023-04-12T13:46:59.932Z,7.70
2023-04-12T13:49:27.613Z,8.00
2023-04-12T13:51:56.938Z,6.80
2023-04-12T13:54:24.764Z,6.40
2023-04-12T13:56:52.399Z,8.50
2023-04-12T13:59:20.162Z,5.50
2023-04-12T14:01:48.011Z,7.20
2023-04-12T14:04:15.839Z,12.30
2023-04-12T14:06:46.195Z,7.80
2023-04-12T14:09:33.066Z,6.80
2023-04-12T14:12:01.713Z,7.80
2023-04-12T14:14:30.838Z,5.60
2023-04-12T14:17:02.130Z,5.50
2023-04-12T14:19:29.922Z,5.20
2023-04-12T14:22:00.548Z,8.20
2023-04-12T14:24:28.173Z,5.60
2023-04-12T14:26:58.383Z,5.00
2023-04-12T14:29:27.211Z,5.50
2023-04-12T14:31:54.753Z,5.30
2023-04-12T14:34:22.537Z,9.30
2023-04-12T14:36:50.073Z,9.60
2023-04-12T14:39:17.775Z,11.70
2023-04-12T14:41:47.122Z,12.60
2023-04-12T14:44:19.968Z,21.20
2023-04-12T14:46:48.252Z,15.00
2023-04-12T14:49:17.180Z,15.30
2023-04-12T14:51:44.905Z,8.00
2023-04-12T14:54:12.531Z,10.50
2023-04-12T14:56:48.569Z,8.80
2023-04-12T14:59:20.461Z,8.20
2023-04-12T15:01:48.573Z,16.90
2023-04-12T15:04:17.820Z,13.30
2023-04-12T15:06:46.356Z,7.90
2023-04-12T15:09:15.905Z,23.50
2023-04-12T15:11:46.609Z,14.10
2023-04-12T15:14:20.507Z,10.10
2023-04-12T15:16:51.480Z,36.40
2023-04-12T15:19:23.453Z,27.70
2023-04-12T15:21:55.051Z,29.70
2023-04-12T15:24:26.595Z,15.50
2023-04-12T15:26:57.500Z,5.20
2023-04-12T15:29:28.110Z,5.60
2023-04-12T15:31:56.570Z,20.40
2023-04-12T15:34:25.235Z,9.70
2023-04-12T15:36:53.660Z,9.20
2023-04-12T15:39:21.519Z,6.60
2023-04-12T15:41:49.135Z,5.90
2023-04-12T15:44:16.800Z,6.50
2023-04-12T15:46:56.057Z,6.40
2023-04-12T15:49:33.078Z,26.40
2023-04-12T15:52:03.421Z,17.20
2023-04-12T15:54:31.048Z,12.60
2023-04-12T15:56:59.842Z,6.10
2023-04-12T15:59:29.915Z,4.90
2023-04-12T16:01:58.859Z,4.40
2023-04-12T16:04:27.328Z,4.60
2023-04-12T16:06:55.166Z,5.40
2023-04-12T16:09:25.783Z,4.90
2023-04-12T16:11:53.397Z,6.10
2023-04-12T16:14:20.973Z,6.70
2023-04-12T16:16:48.728Z,4.80
2023-04-12T16:19:16.486Z,4.20
2023-04-12T16:21:44.882Z,5.10
2023-04-12T16:24:14.385Z,4.50
2023-04-12T16:26:42.143Z,7.20
2023-04-12T16:29:11.793Z,4.00
2023-04-12T16:31:39.460Z,3.90
2023-04-12T16:34:08.263Z,4.50
2023-04-12T16:36:35.834Z,5.20
2023-04-12T16:39:03.561Z,4.20
2023-04-12T16:41:31.610Z,6.30
2023-04-12T16:44:01.500Z,5.80
2023-04-12T16:46:29.822Z,5.50
2023-04-12T16:48:59.336Z,4.80
2023-04-12T16:51:27.204Z,7.40
2023-04-12T16:54:04.903Z,4.90
2023-04-12T16:56:33.493Z,4.90
2023-04-12T16:59:01.203Z,5.00
2023-04-12T17:01:28.994Z,5.20
2023-04-12T17:03:57.461Z,5.00
2023-04-12T17:06:27.299Z,5.10
2023-04-12T17:08:54.921Z,5.10
2023-04-12T17:11:22.862Z,5.40
2023-04-12T17:13:52.518Z,5.40
2023-04-12T17:16:20.764Z,5.20
2023-04-12T17:18:48.482Z,7.10
2023-04-12T17:21:20.412Z,7.00
2023-04-12T17:23:49.049Z,7.00
2023-04-12T17:26:19.040Z,8.50
2023-04-12T17:28:50.014Z,6.50
2023-04-12T17:31:20.732Z,5.90
2023-04-12T17:33:48.437Z,6.40
2023-04-12T17:36:16.211Z,6.60
2023-04-12T17:38:45.788Z,6.10
2023-04-12T17:41:13.757Z,6.80
2023-04-12T17:43:47.619Z,9.00
2023-04-12T17:46:15.581Z,7.00
2023-04-12T17:48:43.275Z,7.60
2023-04-12T17:51:10.961Z,6.50
2023-04-12T17:53:39.057Z,6.80
2023-04-12T17:56:07.587Z,6.30
2023-04-12T17:58:35.823Z,6.70
2023-04-12T18:01:03.700Z,6.40
2023-04-12T18:03:31.541Z,6.60
2023-04-12T18:06:00.873Z,6.00
2023-04-12T18:08:28.597Z,6.20
2023-04-12T18:10:56.401Z,6.10
2023-04-12T18:13:25.598Z,5.90
2023-04-12T18:15:53.448Z,6.40
2023-04-12T18:18:21.186Z,6.40
2023-04-12T18:20:49.023Z,6.40
2023-04-12T18:23:16.902Z,6.00
2023-04-12T18:25:45.322Z,6.10
2023-04-12T18:28:13.122Z,6.50
2023-04-12T18:30:40.961Z,6.70
2023-04-12T18:33:08.853Z,6.60
2023-04-12T18:35:39.248Z,6.20
2023-04-12T18:38:07.753Z,6.40
2023-04-12T18:40:38.822Z,6.30
2023-04-12T18:43:09.597Z,7.10
2023-04-12T18:45:41.317Z,27.10
2023-04-12T18:48:10.260Z,35.20
2023-04-12T18:50:41.494Z,56.40
2023-04-12T18:53:10.595Z,17.90
2023-04-12T18:55:38.184Z,50.20
2023-04-12T18:58:08.974Z,164.40
2023-04-12T19:00:37.223Z,72.20
2023-04-12T19:03:05.355Z,81.90
2023-04-12T19:05:40.256Z,86.20
2023-04-12T19:08:14.889Z,64.30
2023-04-12T19:10:42.641Z,32.30
2023-04-12T19:13:10.316Z,15.30
2023-04-12T19:15:38.520Z,13.00
2023-04-12T19:18:06.350Z,14.50
2023-04-12T19:20:34.393Z,19.10
2023-04-12T19:23:05.422Z,20.10
2023-04-12T19:25:34.917Z,21.30
2023-04-12T19:28:02.829Z,16.50
2023-04-12T19:30:32.126Z,15.00
2023-04-12T19:32:59.962Z,12.10
2023-04-12T19:35:32.641Z,13.30
2023-04-12T19:38:03.950Z,10.40
2023-04-12T19:40:33.204Z,10.00
2023-04-12T19:43:00.978Z,12.00
2023-04-12T19:45:28.750Z,12.00
2023-04-12T19:47:56.476Z,9.90
2023-04-12T19:50:24.902Z,8.80
2023-04-12T19:52:52.641Z,9.30
2023-04-12T19:55:21.609Z,8.50
2023-04-12T19:57:49.273Z,9.20
2023-04-12T20:00:20.439Z,9.40
2023-04-12T20:02:50.417Z,8.70
2023-04-12T20:05:20.140Z,19.20
2023-04-12T20:07:47.735Z,48.40
2023-04-12T20:10:15.732Z,35.30
2023-04-12T20:12:44.556Z,20.70
2023-04-12T20:15:12.265Z,12.30
2023-04-12T20:17:41.452Z,11.90
2023-04-12T20:20:10.890Z,10.50
2023-04-12T20:22:39.655Z,11.30
2023-04-12T20:25:10.279Z,12.30
2023-04-12T20:27:38.947Z,17.60
2023-04-12T20:30:08.995Z,10.90
2023-04-12T20:32:37.279Z,14.40
2023-04-12T20:35:05.368Z,58.10
2023-04-12T20:37:33.878Z,64.80
2023-04-12T20:40:02.910Z,68.60
2023-04-12T20:42:30.462Z,114.90
2023-04-12T20:44:59.276Z,82.70
2023-04-12T20:47:27.677Z,57.30
2023-04-12T20:49:56.341Z,41.90
2023-04-12T20:52:24.226Z,33.40
2023-04-12T20:54:53.359Z,27.80
2023-04-12T20:57:20.926Z,20.90
2023-04-12T20:59:48.459Z,15.40
2023-04-12T21:02:16.483Z,13.20
2023-04-12T21:04:45.010Z,13.70
2023-04-12T21:07:13.470Z,42.40
2023-04-12T21:09:41.299Z,63.00
2023-04-12T21:12:09.533Z,60.00
2023-04-12T21:14:37.865Z,48.20
2023-04-12T21:17:07.465Z,27.90
2023-04-12T21:19:42.475Z,17.20
2023-04-12T21:22:10.228Z,37.10
2023-04-12T21:24:43.892Z,42.50
2023-04-12T21:27:13.160Z,21.20
2023-04-12T21:29:41.002Z,15.30
2023-04-12T21:32:09.591Z,14.10
2023-04-12T21:34:37.320Z,12.50
2023-04-12T21:37:05.310Z,15.10
2023-04-12T21:39:33.133Z,16.50
2023-04-12T21:42:04.240Z,16.60
2023-04-12T21:44:31.806Z,16.40
2023-04-12T21:46:59.319Z,14.80
2023-04-12T21:49:29.972Z,12.70
2023-04-12T21:51:59.134Z,10.60
2023-04-12T21:54:31.199Z,11.40
2023-04-12T21:56:58.671Z,11.40
2023-04-12T21:59:27.351Z,10.90
2023-04-12T22:01:54.907Z,10.60
2023-04-12T22:04:22.416Z,10.60
2023-04-12T22:06:51.531Z,10.60
2023-04-12T22:09:20.304Z,10.70
2023-04-12T22:11:49.008Z,12.90
2023-04-12T22:14:16.593Z,11.90
2023-04-12T22:16:45.093Z,11.70
2023-04-12T22:19:13.014Z,11.30
2023-04-12T22:21:41.436Z,16.00
2023-04-12T22:24:09.003Z,35.00
2023-04-12T22:26:36.464Z,33.80
2023-04-12T22:29:05.720Z,18.10
2023-04-12T22:31:33.814Z,24.80
2023-04-12T22:34:01.714Z,24.60
2023-04-12T22:36:29.745Z,30.90
2023-04-12T22:38:57.274Z,27.10
2023-04-12T22:41:28.707Z,15.80
2023-04-12T22:44:01.621Z,11.80
2023-04-12T22:46:33.039Z,12.40
2023-04-12T22:49:00.797Z,14.50
2023-04-12T22:51:28.332Z,14.60
2023-04-12T22:53:56.687Z,12.40
2023-04-12T22:56:26.883Z,12.00
2023-04-12T22:58:55.527Z,11.00
2023-04-12T23:01:23.213Z,11.50
2023-04-12T23:03:51.645Z,11.40
2023-04-12T23:06:26.764Z,11.40
2023-04-12T23:08:54.171Z,11.00
2023-04-12T23:11:21.649Z,11.70
2023-04-12T23:13:49.127Z,15.20
2023-04-12T23:16:17.088Z,18.20
2023-04-12T23:18:44.940Z,16.20
2023-04-12T23:21:12.386Z,30.90
2023-04-12T23:23:40.469Z,24.00
2023-04-12T23:26:07.901Z,25.40
2023-04-12T23:28:35.542Z,35.10
2023-04-12T23:31:03.223Z,36.40
2023-04-12T23:33:30.718Z,28.80
2023-04-12T23:36:03.013Z,26.60
2023-04-12T23:38:34.553Z,25.30
2023-04-12T23:41:12.463Z,21.80
2023-04-12T23:43:40.554Z,15.10
2023-04-12T23:46:08.176Z,12.40
2023-04-12T23:48:36.592Z,11.50
2023-04-12T23:51:04.531Z,11.30
2023-04-12T23:53:33.001Z,13.60
2023-04-12T23:56:00.529Z,13.40
2023-04-12T23:58:28.016Z,13.60
